Time;durP1;ratioP1;P1;durP2;ratioP2;P2;SDS_P1;SDS_P2;PMS_P1;PMS_P2;Temp;Humidity;BMP_temperature;BMP_pressure;BME280_temperature;BME280_humidity;BME280_pressure;Samples;Min_cycle;Max_cycle;Signal;HPM_P1;HPM_P2
2021/12/04 00:00:52;;;;;;;;;;;;;;;;;;5075973;28;19920;-63
2021/12/04 00:03:19;;;;;;;;;;;;;;;;;;5073315;28;19916;-64
2021/12/04 00:05:54;;;;;;;;;;;;;;;;;;5067593;28;19916;-63
2021/12/04 00:08:21;;;;;;;;;;;;;;;;;;5063243;28;20027;-64
2021/12/04 00:10:46;;;;;;;;;;;;;;;;;;5073625;28;19934;-64
2021/12/04 00:13:12;;;;;;;;;;;;;;;;;;5073232;28;19916;-62
2021/12/04 00:15:37;;;;;;;;;;;;;;;;;;5076744;28;20341;-63
2021/12/04 00:18:02;;;;;;;;;;;;;;;;;;5071969;28;19916;-64
2021/12/04 00:20:30;;;;;;;;;;;;;;;;;;5071461;28;20295;-65
2021/12/04 00:22:58;;;;;;;;;;;;;;;;;;5074268;28;19951;-64
2021/12/04 00:25:24;;;;;;;;;;;;;;;;;;5073145;28;19923;-63
2021/12/04 00:27:49;;;;;;;;;;;;;;;;;;5062864;28;19917;-62
2021/12/04 00:30:14;;;;;;;;;;;;;;;;;;5070947;28;19960;-64
2021/12/04 00:32:42;;;;;;;;;;;;;;;;;;5053463;28;19913;-64
2021/12/04 00:35:34;;;;;;;;;;;;;;;;;;5072033;28;20435;-62
2021/12/04 00:49:05;;;;;;;;;;;;;;;;;;5072066;28;20365;-64
2021/12/04 00:49:10;;;;;;;;;;;;;;;;;;5073099;28;19955;-65
2021/12/04 00:51:36;;;;;;;;;;;;;;;;;;5073794;28;19921;-67
2021/12/04 00:54:01;;;;;;;;;;;;;;;;;;5070455;28;19923;-62
2021/12/04 00:56:26;;;;;;;;;;;;;;;;;;5074326;28;20427;-63
2021/12/04 00:58:51;;;;;;;;;;;;;;;;;;5070775;28;20329;-63
2021/12/04 01:01:17;;;;;;;;;;;;;;;;;;5055199;28;20339;-63
2021/12/04 01:03:42;;;;;;;;;;;;;;;;;;5073623;28;20528;-63
2021/12/04 01:06:07;;;;;;;;;;;;;;;;;;5055813;28;20040;-63
2021/12/04 01:08:32;;;;;;;;;;;;;;;;;;5075095;28;20007;-65
2021/12/04 01:10:58;;;;;;;;;;;;;;;;;;5062770;28;20324;-61
2021/12/04 01:13:23;;;;;;;;;;;;;;;;;;5070549;28;20277;-61
2021/12/04 01:15:48;;;;;;;;;;;;;;;;;;5053640;28;19923;-61
2021/12/04 01:18:13;;;;;;;;;;;;;;;;;;5071663;28;19912;-62
2021/12/04 01:20:39;;;;;;;;;;;;;;;;;;5072658;28;19948;-63
2021/12/04 01:23:04;;;;;;;;;;;;;;;;;;5071753;28;19971;-62
2021/12/04 01:25:29;;;;;;;;;;;;;;;;;;5052982;28;20288;-63
2021/12/04 01:27:54;;;;;;;;;;;;;;;;;;5075245;28;20297;-65
2021/12/04 01:30:20;;;;;;;;;;;;;;;;;;5075069;28;20038;-64
2021/12/04 01:32:45;;;;;;;;;;;;;;;;;;5074643;28;19916;-63
2021/12/04 01:35:10;;;;;;;;;;;;;;;;;;5070694;28;19982;-64
2021/12/04 01:37:35;;;;;;;;;;;;;;;;;;5075008;28;19916;-65
2021/12/04 01:40:01;;;;;;;;;;;;;;;;;;5073458;28;19920;-66
2021/12/04 01:42:27;;;;;;;;;;;;;;;;;;5071905;28;19973;-62
2021/12/04 01:44:52;;;;;;;;;;;;;;;;;;5054364;28;20385;-62
2021/12/04 01:47:19;;;;;;;;;;;;;;;;;;5070604;28;19928;-63
2021/12/04 01:49:44;;;;;;;;;;;;;;;;;;5052580;28;19916;-62
2021/12/04 01:52:09;;;;;;;;;;;;;;;;;;5072377;28;20265;-65
2021/12/04 01:54:35;;;;;;;;;;;;;;;;;;5072015;28;19916;-63
2021/12/04 01:57:00;;;;;;;;;;;;;;;;;;5070403;28;19919;-64
2021/12/04 01:59:25;;;;;;;;;;;;;;;;;;5072269;28;19978;-65
2021/12/04 02:01:50;;;;;;;;;;;;;;;;;;5051014;28;19974;-62
2021/12/04 02:04:15;;;;;;;;;;;;;;;;;;5070972;28;19923;-62
2021/12/04 02:06:41;;;;;;;;;;;;;;;;;;5073574;28;19917;-64
2021/12/04 02:09:06;;;;;;;;;;;;;;;;;;5051998;28;19924;-63
2021/12/04 02:11:31;;;;;;;;;;;;;;;;;;5070010;28;20435;-62
2021/12/04 02:13:56;;;;;;;;;;;;;;;;;;5071256;28;19938;-62
2021/12/04 02:16:22;;;;;;;;;;;;;;;;;;5069245;28;19920;-65
2021/12/04 02:18:47;;;;;;;;;;;;;;;;;;5052389;28;19924;-64
2021/12/04 02:21:12;;;;;;;;;;;;;;;;;;5052345;28;19952;-64
2021/12/04 02:23:38;;;;;;;;;;;;;;;;;;5068451;28;19922;-65
2021/12/04 02:26:03;;;;;;;;;;;;;;;;;;5070922;28;19920;-65
2021/12/04 02:28:28;;;;;;;;;;;;;;;;;;5072692;28;20374;-63
2021/12/04 02:30:53;;;;;;;;;;;;;;;;;;5070999;28;20034;-62
2021/12/04 02:33:20;;;;;;;;;;;;;;;;;;5060095;28;19999;-63
2021/12/04 02:35:45;;;;;;;;;;;;;;;;;;5072405;28;20023;-62
2021/12/04 02:38:11;;;;;;;;;;;;;;;;;;5072928;28;20022;-62
2021/12/04 02:40:36;;;;;;;;;;;;;;;;;;5059384;28;19950;-64
2021/12/04 02:43:01;;;;;;;;;;;;;;;;;;5068381;28;19913;-62
2021/12/04 02:45:26;;;;;;;;;;;;;;;;;;5070258;28;20396;-63
2021/12/04 02:47:51;;;;;;;;;;;;;;;;;;5068453;28;19967;-62
2021/12/04 02:50:17;;;;;;;;;;;;;;;;;;5068553;28;20019;-62
2021/12/04 02:52:42;;;;;;;;;;;;;;;;;;5053358;28;20432;-64
2021/12/04 02:55:08;;;;;;;;;;;;;;;;;;5072007;28;19958;-64
2021/12/04 02:57:36;;;;;;;;;;;;;;;;;;5061594;28;19940;-65
2021/12/04 03:00:02;;;;;;;;;;;;;;;;;;5071637;28;19928;-64
2021/12/04 03:02:27;;;;;;;;;;;;;;;;;;5055297;28;19925;-63
2021/12/04 03:04:52;;;;;;;;;;;;;;;;;;5054862;28;19923;-63
2021/12/04 03:07:18;;;;;;;;;;;;;;;;;;5070673;28;20424;-63
2021/12/04 03:09:43;;;;;;;;;;;;;;;;;;5065334;28;19926;-63
2021/12/04 03:12:08;;;;;;;;;;;;;;;;;;5071960;28;19912;-64
2021/12/04 03:14:33;;;;;;;;;;;;;;;;;;5071359;28;20422;-63
2021/12/04 03:16:59;;;;;;;;;;;;;;;;;;5070279;28;19939;-66
2021/12/04 03:19:24;;;;;;;;;;;;;;;;;;5056982;28;20023;-63
2021/12/04 03:21:49;;;;;;;;;;;;;;;;;;5070944;28;19928;-63
2021/12/04 03:24:16;;;;;;;;;;;;;;;;;;5050103;28;19923;-63
2021/12/04 03:26:42;;;;;;;;;;;;;;;;;;5071260;28;19978;-65
2021/12/04 03:29:10;;;;;;;;;;;;;;;;;;5050144;28;19920;-64
2021/12/04 03:42:12;;;;;;;;;;;;;;;;;;5071269;28;19926;-64
2021/12/04 03:44:39;;;;;;;;;;;;;;;;;;5051764;28;19920;-63
2021/12/04 03:47:04;;;;;;;;;;;;;;;;;;5068588;28;19916;-65
2021/12/04 03:49:29;;;;;;;;;;;;;;;;;;5072668;28;19916;-66
2021/12/04 03:51:54;;;;;;;;;;;;;;;;;;5069357;28;20416;-62
2021/12/04 03:54:20;;;;;;;;;;;;;;;;;;5069606;28;20362;-65
2021/12/04 03:56:45;;;;;;;;;;;;;;;;;;5068834;28;19923;-64
2021/12/04 03:59:10;;;;;;;;;;;;;;;;;;5070156;28;20018;-64
2021/12/04 04:01:35;;;;;;;;;;;;;;;;;;5067765;28;19947;-65
2021/12/04 04:04:01;;;;;;;;;;;;;;;;;;5068068;28;20292;-64
2021/12/04 04:06:26;;;;;;;;;;;;;;;;;;5052594;28;19916;-63
2021/12/04 04:08:51;;;;;;;;;;;;;;;;;;5033506;28;20041;-63
2021/12/04 04:11:16;;;;;;;;;;;;;;;;;;5070064;28;19916;-62
2021/12/04 04:13:44;;;;;;;;;;;;;;;;;;5073042;28;19923;-62
2021/12/04 04:16:09;;;;;;;;;;;;;;;;;;5072518;28;19924;-63
2021/12/04 04:18:34;;;;;;;;;;;;;;;;;;5070651;28;19998;-64
2021/12/04 04:20:59;;;;;;;;;;;;;;;;;;5067866;28;20287;-64
2021/12/04 04:23:25;;;;;;;;;;;;;;;;;;5068966;28;19923;-63
2021/12/04 04:25:50;;;;;;;;;;;;;;;;;;5069711;28;20258;-65
2021/12/04 04:28:15;;;;;;;;;;;;;;;;;;5070247;28;19920;-63
2021/12/04 04:30:40;;;;;;;;;;;;;;;;;;5070419;28;19969;-63
2021/12/04 04:33:06;;;;;;;;;;;;;;;;;;5034538;28;19982;-63
2021/12/04 04:35:33;;;;;;;;;;;;;;;;;;5070662;28;19913;-63
2021/12/04 04:59:52;;;;;;;;;;;;;;;;;;5073197;28;19924;-63
2021/12/04 05:10:54;;;;;;;;;;;;;;;;;;5087990;28;19928;-66
2021/12/04 05:13:22;;;;;;;;;;;;;;;;;;5069005;28;19955;-63
2021/12/04 05:21:03;;;;;;;;;;;;;;;;;;5070050;28;19921;-65
2021/12/04 05:23:28;;;;;;;;;;;;;;;;;;5070395;28;20241;-63
2021/12/04 05:25:53;;;;;;;;;;;;;;;;;;5069875;28;19923;-64
2021/12/04 05:28:19;;;;;;;;;;;;;;;;;;5069540;28;19923;-63
2021/12/04 05:30:44;;;;;;;;;;;;;;;;;;5070812;28;19923;-63
2021/12/04 05:33:09;;;;;;;;;;;;;;;;;;5069943;28;19923;-63
2021/12/04 05:35:34;;;;;;;;;;;;;;;;;;5092336;28;19997;-64
2021/12/04 05:37:59;;;;;;;;;;;;;;;;;;5089725;28;19916;-64
2021/12/04 05:40:25;;;;;;;;;;;;;;;;;;5071714;28;19923;-64
2021/12/04 05:42:50;;;;;;;;;;;;;;;;;;5093913;28;19920;-64
2021/12/04 05:45:21;;;;;;;;;;;;;;;;;;5078210;28;19921;-65
2021/12/04 05:47:58;;;;;;;;;;;;;;;;;;5090894;28;19916;-64
2021/12/04 05:55:21;;;;;;;;;;;;;;;;;;5063539;28;19916;-64
2021/12/04 05:57:46;;;;;;;;;;;;;;;;;;5086999;28;20038;-64
2021/12/04 06:00:12;;;;;;;;;;;;;;;;;;5092912;28;20305;-66
2021/12/04 06:02:37;;;;;;;;;;;;;;;;;;5074405;28;19919;-63
2021/12/04 06:05:03;;;;;;;;;;;;;;;;;;5086888;28;19923;-64
2021/12/04 06:07:28;;;;;;;;;;;;;;;;;;5090811;28;20268;-64
2021/12/04 06:09:53;;;;;;;;;;;;;;;;;;5093058;28;20583;-64
2021/12/04 06:12:18;;;;;;;;;;;;;;;;;;5087879;28;19924;-65
2021/12/04 06:14:45;;;;;;;;;;;;;;;;;;5072246;28;20273;-64
2021/12/04 06:17:11;;;;;;;;;;;;;;;;;;5073921;28;20284;-64
2021/12/04 06:22:38;;;;;;;;;;;;;;;;;;5073026;28;19928;-65
2021/12/04 06:25:25;;;;;;;;;;;;;;;;;;5113126;27;20026;-64
2021/12/04 06:27:50;;;;;;;;;;;;;;;;;;5108753;28;19912;-65
2021/12/04 06:30:15;;;;;;;;;;;;;;;;;;5105737;28;19916;-65
2021/12/04 06:32:41;;;;;;;;;;;;;;;;;;5106256;28;19977;-66
2021/12/04 06:35:06;;;;;;;;;;;;;;;;;;5108361;28;19912;-66
2021/12/04 06:37:32;;;;;;;;;;;;;;;;;;5105938;28;19927;-66
2021/12/04 06:39:57;;;;;;;;;;;;;;;;;;5104536;28;19977;-64
2021/12/04 06:42:23;;;;;;;;;;;;;;;;;;5105281;28;20451;-66
2021/12/04 06:44:50;;;;;;;;;;;;;;;;;;5106930;28;19920;-65
2021/12/04 06:47:15;;;;;;;;;;;;;;;;;;5108006;28;20293;-65
2021/12/04 06:49:42;;;;;;;;;;;;;;;;;;5109157;28;20376;-64
2021/12/04 06:52:13;;;;;;;;;;;;;;;;;;5108107;28;19920;-63
2021/12/04 06:54:41;;;;;;;;;;;;;;;;;;5105076;28;19915;-64
2021/12/04 06:57:13;;;;;;;;;;;;;;;;;;5108106;28;19916;-64
2021/12/04 06:59:40;;;;;;;;;;;;;;;;;;5101757;28;20018;-66
2021/12/04 07:02:05;;;;;;;;;;;;;;;;;;5105300;28;19916;-65
2021/12/04 07:04:34;;;;;;;;;;;;;;;;;;5100599;28;19920;-65
2021/12/04 07:07:00;;;;;;;;;;;;;;;;;;5105047;28;19927;-64
2021/12/04 07:09:25;;;;;;;;;;;;;;;;;;5109000;28;19912;-63
2021/12/04 07:11:50;;;;;;;;;;;;;;;;;;5105874;28;19955;-65
2021/12/04 07:14:15;;;;;;;;;;;;;;;;;;5111332;28;19955;-67
2021/12/04 07:16:41;;;;;;;;;;;;;;;;;;5107169;28;20002;-67
2021/12/04 07:19:06;;;;;;;;;;;;;;;;;;5105739;28;20416;-65
2021/12/04 07:21:31;;;;;;;;;;;;;;;;;;5105802;28;20387;-65
2021/12/04 07:23:56;;;;;;;;;;;;;;;;;;5106413;28;19967;-64
2021/12/04 07:26:22;;;;;;;;;;;;;;;;;;5105515;28;19916;-65
2021/12/04 07:28:47;;;;;;;;;;;;;;;;;;5103572;28;19916;-63
2021/12/04 07:31:12;;;;;;;;;;;;;;;;;;5107816;28;19965;-63
2021/12/04 07:33:37;;;;;;;;;;;;;;;;;;5101774;28;19916;-66
2021/12/04 07:36:02;;;;;;;;;;;;;;;;;;5095690;28;19954;-66
2021/12/04 07:38:28;;;;;;;;;;;;;;;;;;5090150;28;19923;-66
2021/12/04 07:40:53;;;;;;;;;;;;;;;;;;5095886;28;19961;-63
2021/12/04 07:43:18;;;;;;;;;;;;;;;;;;5094122;28;19920;-65
2021/12/04 07:45:43;;;;;;;;;;;;;;;;;;5091294;28;19916;-64
2021/12/04 07:48:08;;;;;;;;;;;;;;;;;;5091375;28;19922;-64
2021/12/04 07:50:34;;;;;;;;;;;;;;;;;;5092800;28;19924;-64
2021/12/04 07:52:59;;;;;;;;;;;;;;;;;;5094512;28;19922;-64
2021/12/04 07:55:24;;;;;;;;;;;;;;;;;;5088925;28;19978;-65
2021/12/04 07:57:49;;;;;;;;;;;;;;;;;;5092424;28;20264;-63
2021/12/04 08:00:15;;;;;;;;;;;;;;;;;;5089936;28;20364;-65
2021/12/04 08:02:41;;;;;;;;;;;;;;;;;;5095001;28;20470;-63
2021/12/04 08:05:07;;;;;;;;;;;;;;;;;;5092340;28;20431;-66
2021/12/04 08:07:32;;;;;;;;;;;;;;;;;;5083292;28;19923;-66
2021/12/04 08:09:57;;;;;;;;;;;;;;;;;;5089934;28;19920;-64
2021/12/04 08:12:23;;;;;;;;;;;;;;;;;;5092967;28;19919;-66
2021/12/04 08:14:48;;;;;;;;;;;;;;;;;;5089832;28;19912;-63
2021/12/04 08:17:13;;;;;;;;;;;;;;;;;;5090783;28;19950;-63
2021/12/04 08:19:38;;;;;;;;;;;;;;;;;;5093623;28;20312;-64
2021/12/04 08:22:03;;;;;;;;;;;;;;;;;;5089435;28;19919;-64
2021/12/04 08:24:29;;;;;;;;;;;;;;;;;;5087924;28;19977;-65
2021/12/04 08:26:54;;;;;;;;;;;;;;;;;;5090431;28;19912;-63
2021/12/04 08:29:19;;;;;;;;;;;;;;;;;;5091224;28;19916;-64
2021/12/04 08:31:46;;;;;;;;;;;;;;;;;;5088995;28;19927;-64
2021/12/04 08:34:11;;;;;;;;;;;;;;;;;;5093754;28;19912;-64
2021/12/04 08:36:37;;;;;;;;;;;;;;;;;;5089024;28;19923;-64
2021/12/04 08:39:02;;;;;;;;;;;;;;;;;;5089829;28;19920;-64
2021/12/04 08:41:27;;;;;;;;;;;;;;;;;;5092486;28;19942;-65
2021/12/04 08:43:54;;;;;;;;;;;;;;;;;;5092151;28;20089;-64
2021/12/04 08:46:20;;;;;;;;;;;;;;;;;;5089528;28;20409;-66
2021/12/04 08:48:45;;;;;;;;;;;;;;;;;;5087515;28;20054;-66
2021/12/04 08:51:10;;;;;;;;;;;;;;;;;;5088164;28;20006;-64
2021/12/04 08:53:36;;;;;;;;;;;;;;;;;;5087773;28;20021;-64
2021/12/04 08:56:01;;;;;;;;;;;;;;;;;;5089537;28;19941;-66
2021/12/04 08:58:26;;;;;;;;;;;;;;;;;;5088902;28;20376;-63
2021/12/04 09:00:52;;;;;;;;;;;;;;;;;;5090931;28;20360;-66
2021/12/04 09:03:17;;;;;;;;;;;;;;;;;;5084998;28;19942;-64
2021/12/04 09:05:42;;;;;;;;;;;;;;;;;;5092088;28;19962;-64
2021/12/04 09:08:07;;;;;;;;;;;;;;;;;;5091033;28;19944;-68
2021/12/04 09:10:33;;;;;;;;;;;;;;;;;;5089929;28;19923;-64
2021/12/04 09:12:58;;;;;;;;;;;;;;;;;;5090628;28;19923;-65
2021/12/04 09:15:23;;;;;;;;;;;;;;;;;;5091391;28;19916;-63
2021/12/04 09:17:48;;;;;;;;;;;;;;;;;;5087962;28;19916;-63
2021/12/04 09:20:16;;;;;;;;;;;;;;;;;;5089935;28;19916;-64
2021/12/04 09:22:41;;;;;;;;;;;;;;;;;;5090662;28;20426;-63
2021/12/04 09:25:07;;;;;;;;;;;;;;;;;;5092277;28;19932;-64
2021/12/04 09:35:45;;;;;;;;;;;;;;;;;;5089945;28;19923;-63
2021/12/04 10:34:47;;;;;;;;;;;;;;;;;;5043347;28;19912;-65
2021/12/04 10:37:13;;;;;;;;;;;;;;;;;;5041070;28;19913;-67
2021/12/04 10:39:38;;;;;;;;;;;;;;;;;;5062201;28;19927;-66
2021/12/04 10:42:07;;;;;;;;;;;;;;;;;;5086011;28;19931;-63
2021/12/04 10:44:32;;;;;;;;;;;;;;;;;;5082396;28;20282;-65
2021/12/04 10:46:58;;;;;;;;;;;;;;;;;;5086067;28;19923;-66
2021/12/04 10:49:24;;;;;;;;;;;;;;;;;;5079626;28;19962;-63
2021/12/04 10:51:58;;;;;;;;;;;;;;;;;;5082501;28;20057;-63
2021/12/04 10:54:30;;;;;;;;;;;;;;;;;;5089620;28;19924;-64
2021/12/04 10:57:29;;;;;;;;;;;;;;;;;;5081474;28;20323;-68
2021/12/04 10:59:57;;;;;;;;;;;;;;;;;;5079635;28;21519;-66
2021/12/04 11:02:27;;;;;;;;;;;;;;;;;;5072987;27;19978;-65
2021/12/04 11:04:59;;;;;;;;;;;;;;;;;;5070163;28;19924;-66
2021/12/04 11:28:27;;;;;;;;;;;;;;;;;;5070666;28;19916;-63
2021/12/04 11:44:03;;;;;;;;;;;;;;;;;;5069422;28;19955;-64
2021/12/04 11:46:40;;;;;;;;;;;;;;;;;;5077554;28;20015;-66
2021/12/04 11:49:05;;;;;;;;;;;;;;;;;;5104602;27;19912;-66
2021/12/04 11:51:30;;;;;;;;;;;;;;;;;;5075769;28;19922;-65
2021/12/04 11:53:55;;;;;;;;;;;;;;;;;;5100144;27;19916;-64
2021/12/04 11:56:21;;;;;;;;;;;;;;;;;;5074855;28;20778;-63
2021/12/04 11:58:46;;;;;;;;;;;;;;;;;;5074700;28;19990;-64
2021/12/04 12:01:11;;;;;;;;;;;;;;;;;;5064118;28;19932;-66
2021/12/04 12:03:36;;;;;;;;;;;;;;;;;;5073419;28;20515;-66
2021/12/04 12:06:02;;;;;;;;;;;;;;;;;;5068861;28;19920;-66
2021/12/04 12:08:28;;;;;;;;;;;;;;;;;;5067793;28;20365;-65
2021/12/04 12:10:54;;;;;;;;;;;;;;;;;;5079777;28;19917;-64
2021/12/04 12:13:19;;;;;;;;;;;;;;;;;;5073818;28;20435;-65
2021/12/04 12:15:50;;;;;;;;;;;;;;;;;;5081473;28;19912;-64
2021/12/04 12:18:15;;;;;;;;;;;;;;;;;;5059805;28;20509;-63
2021/12/04 12:20:45;;;;;;;;;;;;;;;;;;5077604;28;19924;-63
2021/12/04 12:23:11;;;;;;;;;;;;;;;;;;5072888;28;19917;-64
2021/12/04 12:38:32;;;;;;;;;;;;;;;;;;5074371;28;19938;-63
2021/12/04 12:40:58;;;;;;;;;;;;;;;;;;5072654;28;20364;-64
2021/12/04 12:43:23;;;;;;;;;;;;;;;;;;5077450;28;19916;-64
2021/12/04 12:45:48;;;;;;;;;;;;;;;;;;5066844;28;19963;-66
2021/12/04 12:48:14;;;;;;;;;;;;;;;;;;5074377;28;20068;-65
2021/12/04 12:50:39;;;;;;;;;;;;;;;;;;5069646;28;20009;-65
2021/12/04 12:53:04;;;;;;;;;;;;;;;;;;5067882;28;19933;-64
2021/12/04 12:55:34;;;;;;;;;;;;;;;;;;5076638;28;20296;-65
2021/12/04 12:57:59;;;;;;;;;;;;;;;;;;5070828;28;19917;-66
2021/12/04 13:13:46;;;;;;;;;;;;;;;;;;5070908;28;20236;-65
2021/12/04 13:16:11;;;;;;;;;;;;;;;;;;5077507;28;19923;-64
2021/12/04 13:18:37;;;;;;;;;;;;;;;;;;5072416;28;19917;-62
2021/12/04 13:21:02;;;;;;;;;;;;;;;;;;5066432;28;20375;-63
2021/12/04 13:23:27;;;;;;;;;;;;;;;;;;5079573;28;20330;-65
2021/12/04 13:25:53;;;;;;;;;;;;;;;;;;5067613;28;19927;-66
2021/12/04 13:30:43;;;;;;;;;;;;;;;;;;5069685;28;19920;-63
2021/12/04 13:33:09;;;;;;;;;;;;;;;;;;5069731;28;19924;-64
2021/12/04 13:35:34;;;;;;;;;;;;;;;;;;5063410;28;19920;-64
2021/12/04 13:38:01;;;;;;;;;;;;;;;;;;5070150;28;20015;-66
2021/12/04 13:40:27;;;;;;;;;;;;;;;;;;5073004;28;20203;-62
2021/12/04 13:42:52;;;;;;;;;;;;;;;;;;5070166;28;19920;-63
2021/12/04 13:45:17;;;;;;;;;;;;;;;;;;5068834;28;19963;-64
2021/12/04 13:47:42;;;;;;;;;;;;;;;;;;5073044;28;20408;-65
2021/12/04 13:52:52;;;;;;;;;;;;;;;;;;5072989;28;19916;-65
2021/12/04 13:55:18;;;;;;;;;;;;;;;;;;5067359;28;20493;-66
2021/12/04 13:57:43;;;;;;;;;;;;;;;;;;5073708;28;19917;-66
2021/12/04 14:00:08;;;;;;;;;;;;;;;;;;5074157;28;19985;-66
2021/12/04 14:02:34;;;;;;;;;;;;;;;;;;5071096;28;19926;-65
2021/12/04 14:04:59;;;;;;;;;;;;;;;;;;5074756;28;19928;-63
2021/12/04 14:07:24;;;;;;;;;;;;;;;;;;5068695;28;19928;-66
2021/12/04 14:09:49;;;;;;;;;;;;;;;;;;5067041;28;19916;-68
2021/12/04 14:12:15;;;;;;;;;;;;;;;;;;5072379;28;19923;-66
2021/12/04 14:14:40;;;;;;;;;;;;;;;;;;5071252;28;19917;-68
2021/12/04 14:17:05;;;;;;;;;;;;;;;;;;5076676;28;19916;-65
2021/12/04 14:19:30;;;;;;;;;;;;;;;;;;5069507;28;19916;-64
2021/12/04 14:21:56;;;;;;;;;;;;;;;;;;5067607;28;19917;-64
2021/12/04 14:24:21;;;;;;;;;;;;;;;;;;5070996;28;19920;-66
2021/12/04 14:26:46;;;;;;;;;;;;;;;;;;5066207;28;20014;-65
2021/12/04 14:29:11;;;;;;;;;;;;;;;;;;5063625;28;19920;-66
2021/12/04 14:31:36;;;;;;;;;;;;;;;;;;5066511;28;20413;-70
2021/12/04 14:34:02;;;;;;;;;;;;;;;;;;5070206;28;20390;-66
2021/12/04 14:36:28;;;;;;;;;;;;;;;;;;5074480;28;20271;-66
2021/12/04 14:38:53;;;;;;;;;;;;;;;;;;5068160;28;19942;-65
2021/12/04 14:41:19;;;;;;;;;;;;;;;;;;5072358;28;19920;-65
2021/12/04 14:43:44;;;;;;;;;;;;;;;;;;5067716;28;20320;-64
2021/12/04 14:46:09;;;;;;;;;;;;;;;;;;5074824;28;19940;-64
2021/12/04 14:48:35;;;;;;;;;;;;;;;;;;5077298;28;20509;-67
2021/12/04 14:51:05;;;;;;;;;;;;;;;;;;5072511;28;20498;-69
2021/12/04 14:53:31;;;;;;;;;;;;;;;;;;5069141;28;20037;-66
2021/12/04 14:55:56;;;;;;;;;;;;;;;;;;5083901;28;20336;-67
2021/12/04 14:58:21;;;;;;;;;;;;;;;;;;5069741;28;20030;-64
2021/12/04 15:00:46;;;;;;;;;;;;;;;;;;5080315;28;20050;-69
2021/12/04 15:03:12;;;;;;;;;;;;;;;;;;5078086;28;19961;-66
2021/12/04 15:05:37;;;;;;;;;;;;;;;;;;5072887;28;19924;-68
2021/12/04 15:08:03;;;;;;;;;;;;;;;;;;5080518;28;20627;-67
2021/12/04 15:10:28;;;;;;;;;;;;;;;;;;5071399;28;19917;-69
2021/12/04 15:12:57;;;;;;;;;;;;;;;;;;5078399;28;19916;-69
2021/12/04 15:15:22;;;;;;;;;;;;;;;;;;5074142;28;19920;-69
2021/12/04 15:17:48;;;;;;;;;;;;;;;;;;5070985;28;19966;-71
2021/12/04 15:20:19;;;;;;;;;;;;;;;;;;5078477;28;20254;-72
2021/12/04 15:22:46;;;;;;;;;;;;;;;;;;5073155;28;19920;-68
2021/12/04 15:25:11;;;;;;;;;;;;;;;;;;5077370;28;20369;-66
2021/12/04 15:27:36;;;;;;;;;;;;;;;;;;5074472;28;19971;-66
2021/12/04 15:30:01;;;;;;;;;;;;;;;;;;5073490;28;20330;-72
2021/12/04 15:32:27;;;;;;;;;;;;;;;;;;5077204;28;19969;-70
2021/12/04 15:35:05;;;;;;;;;;;;;;;;;;5076543;28;19916;-70
2021/12/04 15:37:34;;;;;;;;;;;;;;;;;;5065124;28;19920;-69
2021/12/04 15:40:00;;;;;;;;;;;;;;;;;;5077680;28;20373;-69
2021/12/04 15:42:29;;;;;;;;;;;;;;;;;;5071143;28;19916;-71
2021/12/04 15:47:30;;;;;;;;;;;;;;;;;;5071641;28;20388;-66
2021/12/04 15:55:18;;;;;;;;;;;;;;;;;;5069587;28;19912;-68
2021/12/04 15:57:44;;;;;;;;;;;;;;;;;;5078932;28;19965;-68
2021/12/04 16:00:09;;;;;;;;;;;;;;;;;;5077808;28;19916;-70
2021/12/04 16:02:36;;;;;;;;;;;;;;;;;;5070649;28;20079;-66
2021/12/04 16:05:01;;;;;;;;;;;;;;;;;;5082074;28;20027;-65
2021/12/04 16:07:28;;;;;;;;;;;;;;;;;;5071762;28;19927;-70
2021/12/04 16:09:53;;;;;;;;;;;;;;;;;;5077576;28;20282;-65
2021/12/04 16:12:18;;;;;;;;;;;;;;;;;;5070381;28;19923;-69
2021/12/04 16:14:43;;;;;;;;;;;;;;;;;;5078290;28;19945;-67
2021/12/04 16:17:09;;;;;;;;;;;;;;;;;;5083721;28;19916;-69
2021/12/04 16:19:34;;;;;;;;;;;;;;;;;;5071632;28;19920;-66
2021/12/04 16:22:01;;;;;;;;;;;;;;;;;;5066989;27;19928;-66
2021/12/04 16:24:27;;;;;;;;;;;;;;;;;;5075968;28;20290;-68
2021/12/04 16:26:57;;;;;;;;;;;;;;;;;;5067040;28;20364;-65
2021/12/04 16:29:24;;;;;;;;;;;;;;;;;;5066282;28;19924;-69
2021/12/04 16:39:41;;;;;;;;;;;;;;;;;;5045004;28;19978;-70
2021/12/04 16:42:08;;;;;;;;;;;;;;;;;;5076352;28;19995;-65
2021/12/04 16:44:33;;;;;;;;;;;;;;;;;;5070947;28;19924;-66
2021/12/04 16:46:59;;;;;;;;;;;;;;;;;;5075337;28;19916;-68
2021/12/04 16:49:24;;;;;;;;;;;;;;;;;;5069591;28;19916;-69
2021/12/04 16:55:00;;;;;;;;;;;;;;;;;;5043717;28;19977;-70
2021/12/04 17:00:00;;;;;;;;;;;;;;;;;;5070349;28;19977;-68
2021/12/04 17:02:25;;;;;;;;;;;;;;;;;;5074151;28;20432;-73
2021/12/04 17:04:50;;;;;;;;;;;;;;;;;;5071715;28;19926;-69
2021/12/04 17:07:15;;;;;;;;;;;;;;;;;;5070679;28;19920;-72
2021/12/04 17:09:41;;;;;;;;;;;;;;;;;;5084127;28;20361;-70
2021/12/04 17:12:06;;;;;;;;;;;;;;;;;;5072018;28;20411;-72
2021/12/04 17:14:31;;;;;;;;;;;;;;;;;;5077151;28;19920;-65
2021/12/04 17:16:57;;;;;;;;;;;;;;;;;;5070836;28;20285;-68
2021/12/04 17:19:24;;;;;;;;;;;;;;;;;;5070623;28;19923;-64
2021/12/04 17:21:49;;;;;;;;;;;;;;;;;;5076940;28;19917;-64
2021/12/04 17:24:14;;;;;;;;;;;;;;;;;;5070383;28;20280;-69
2021/12/04 17:26:40;;;;;;;;;;;;;;;;;;5074282;28;20377;-70
2021/12/04 17:29:06;;;;;;;;;;;;;;;;;;5069671;28;20288;-68
2021/12/04 17:31:31;;;;;;;;;;;;;;;;;;5070992;28;19916;-65
2021/12/04 17:33:57;;;;;;;;;;;;;;;;;;5081859;28;20638;-69
2021/12/04 17:36:22;;;;;;;;;;;;;;;;;;5065157;28;20383;-66
2021/12/04 17:38:47;;;;;;;;;;;;;;;;;;5073165;28;20259;-68
2021/12/04 17:41:12;;;;;;;;;;;;;;;;;;5070099;28;19923;-64
2021/12/04 17:43:38;;;;;;;;;;;;;;;;;;5069551;28;20480;-68
2021/12/04 17:46:03;;;;;;;;;;;;;;;;;;5080224;28;19924;-69
2021/12/04 17:48:29;;;;;;;;;;;;;;;;;;5071155;28;20649;-68
2021/12/04 17:50:54;;;;;;;;;;;;;;;;;;5071906;28;19924;-69
2021/12/04 17:53:19;;;;;;;;;;;;;;;;;;5070303;28;19965;-65
2021/12/04 17:55:45;;;;;;;;;;;;;;;;;;5067049;28;19923;-73
2021/12/04 17:58:12;;;;;;;;;;;;;;;;;;5074740;28;19916;-67
2021/12/04 18:00:38;;;;;;;;;;;;;;;;;;5069628;28;19968;-72
2021/12/04 18:03:03;;;;;;;;;;;;;;;;;;5067902;28;19923;-82
2021/12/04 18:05:29;;;;;;;;;;;;;;;;;;5074944;28;19921;-65
2021/12/04 18:07:54;;;;;;;;;;;;;;;;;;5066790;28;19980;-66
2021/12/04 18:10:19;;;;;;;;;;;;;;;;;;5073909;28;20360;-68
2021/12/04 18:12:44;;;;;;;;;;;;;;;;;;5069129;28;19916;-69
2021/12/04 18:15:10;;;;;;;;;;;;;;;;;;5076291;28;19912;-79
2021/12/04 18:17:35;;;;;;;;;;;;;;;;;;5083011;28;20397;-72
2021/12/04 18:20:00;;;;;;;;;;;;;;;;;;5072369;28;19916;-68
2021/12/04 18:22:25;;;;;;;;;;;;;;;;;;5074888;28;20300;-72
2021/12/04 18:24:50;;;;;;;;;;;;;;;;;;5069285;28;19920;-63
2021/12/04 18:27:16;;;;;;;;;;;;;;;;;;5068882;28;19919;-81
2021/12/04 18:29:41;;;;;;;;;;;;;;;;;;5073071;28;19923;-68
2021/12/04 18:32:06;;;;;;;;;;;;;;;;;;5070335;28;19912;-65
2021/12/04 18:34:33;;;;;;;;;;;;;;;;;;5073076;28;19942;-72
2021/12/04 18:36:58;;;;;;;;;;;;;;;;;;5069861;28;19912;-71
2021/12/04 18:39:25;;;;;;;;;;;;;;;;;;5070371;28;19916;-69
2021/12/04 18:41:53;;;;;;;;;;;;;;;;;;5079680;28;19920;-67
2021/12/04 18:44:19;;;;;;;;;;;;;;;;;;5069965;28;20019;-64
2021/12/04 18:46:44;;;;;;;;;;;;;;;;;;5071660;28;20389;-66
2021/12/04 18:49:09;;;;;;;;;;;;;;;;;;5073650;28;19923;-68
2021/12/04 18:51:35;;;;;;;;;;;;;;;;;;5074734;28;19921;-68
2021/12/04 18:54:00;;;;;;;;;;;;;;;;;;5071765;28;20446;-73
2021/12/04 18:56:25;;;;;;;;;;;;;;;;;;5066364;28;19912;-65
2021/12/04 18:58:50;;;;;;;;;;;;;;;;;;5078534;28;19927;-69
2021/12/04 19:01:16;;;;;;;;;;;;;;;;;;5067612;28;19917;-71
2021/12/04 19:03:41;;;;;;;;;;;;;;;;;;5066348;28;19916;-70
2021/12/04 19:06:06;;;;;;;;;;;;;;;;;;5072742;28;19924;-71
2021/12/04 19:08:31;;;;;;;;;;;;;;;;;;5068481;28;20006;-66
2021/12/04 19:10:57;;;;;;;;;;;;;;;;;;5072712;28;19920;-70
2021/12/04 19:13:22;;;;;;;;;;;;;;;;;;5067460;28;19998;-65
2021/12/04 19:15:47;;;;;;;;;;;;;;;;;;5069648;28;19912;-70
2021/12/04 19:18:13;;;;;;;;;;;;;;;;;;5046267;28;20031;-65
2021/12/04 19:20:38;;;;;;;;;;;;;;;;;;5043535;28;19917;-74
2021/12/04 19:23:03;;;;;;;;;;;;;;;;;;5038556;28;20388;-65
2021/12/04 19:25:29;;;;;;;;;;;;;;;;;;5050655;28;19920;-68
2021/12/04 19:27:54;;;;;;;;;;;;;;;;;;5053011;28;19921;-73
2021/12/04 19:30:22;;;;;;;;;;;;;;;;;;5059376;28;19917;-68
2021/12/04 19:32:54;;;;;;;;;;;;;;;;;;5060884;28;19913;-64
2021/12/04 19:35:50;;;;;;;;;;;;;;;;;;5061198;28;19967;-72
2021/12/04 19:51:28;;;;;;;;;;;;;;;;;;5054451;28;19920;-71
2021/12/04 19:56:22;;;;;;;;;;;;;;;;;;5055065;28;19916;-67
2021/12/04 19:58:47;;;;;;;;;;;;;;;;;;5057153;28;19916;-71
2021/12/04 20:06:25;;;;;;;;;;;;;;;;;;5055145;28;19921;-67
2021/12/04 20:14:18;;;;;;;;;;;;;;;;;;5053101;28;19942;-68
2021/12/04 20:16:43;;;;;;;;;;;;;;;;;;5057057;28;20342;-68
2021/12/04 20:19:10;;;;;;;;;;;;;;;;;;5054888;28;19920;-67
2021/12/04 20:21:44;;;;;;;;;;;;;;;;;;5056373;28;20011;-67
2021/12/04 20:24:10;;;;;;;;;;;;;;;;;;5051325;28;19924;-68
2021/12/04 20:26:44;;;;;;;;;;;;;;;;;;5055848;28;19932;-69
2021/12/04 20:29:23;;;;;;;;;;;;;;;;;;5045107;28;20467;-67
2021/12/04 20:35:56;;;;;;;;;;;;;;;;;;5061610;28;19924;-67
2021/12/04 20:41:02;;;;;;;;;;;;;;;;;;5052756;28;20015;-68
2021/12/04 21:07:38;;;;;;;;;;;;;;;;;;5056042;28;19920;-69
2021/12/04 21:12:43;;;;;;;;;;;;;;;;;;5055442;28;20007;-68